Time;durP1;ratioP1;P1;durP2;ratioP2;P2;SDS_P1;SDS_P2;PMS_P1;PMS_P2;Temp;Humidity;BMP_temperature;BMP_pressure;BME280_temperature;BME280_humidity;BME280_pressure;Samples;Min_cycle;Max_cycle;Signal;HPM_P1;HPM_P2
2022/12/18 00:02:16;;;;;;;36.33;20.80;;;1.20;69.60;;;;;;5097702;28;20034;-61
2022/12/18 00:04:41;;;;;;;47.87;24.60;;;1.20;69.60;;;;;;5096514;28;20055;-61
2022/12/18 00:07:07;;;;;;;42.50;22.37;;;1.10;69.50;;;;;;5114535;28;20023;-61
2022/12/18 00:09:33;;;;;;;42.20;21.40;;;1.10;69.50;;;;;;5112888;28;20037;-61
2022/12/18 00:11:58;;;;;;;41.17;20.47;;;1.10;69.50;;;;;;5112275;28;20673;-61
2022/12/18 00:14:24;;;;;;;41.97;22.70;;;1.10;69.40;;;;;;5114476;28;20389;-61
2022/12/18 00:16:50;;;;;;;41.37;21.73;;;1.10;69.40;;;;;;5115624;27;20408;-61
2022/12/18 00:19:15;;;;;;;40.80;21.67;;;1.10;69.40;;;;;;5112199;28;20028;-61
2022/12/18 00:21:42;;;;;;;41.17;20.87;;;1.00;69.20;;;;;;5096404;28;20036;-61
2022/12/18 00:24:09;;;;;;;40.43;20.70;;;1.10;69.20;;;;;;5114004;28;20083;-61
2022/12/18 00:26:37;;;;;;;42.03;22.43;;;1.00;69.20;;;;;;5096151;28;20035;-61
2022/12/18 00:29:10;;;;;;;44.50;22.33;;;1.00;69.10;;;;;;5111429;28;20102;-61
2022/12/18 00:31:37;;;;;;;36.00;19.63;;;1.00;69.10;;;;;;5110106;28;20028;-61
2022/12/18 00:34:03;;;;;;;39.30;20.53;;;1.00;69.10;;;;;;5097000;28;20055;-61
2022/12/18 00:36:33;;;;;;;34.83;20.40;;;1.00;69.00;;;;;;5112949;28;20070;-61
2022/12/18 00:39:00;;;;;;;39.47;20.30;;;0.90;69.00;;;;;;5112475;28;20023;-61
2022/12/18 00:44:13;;;;;;;38.80;20.43;;;0.90;68.90;;;;;;5113757;28;20023;-61
2022/12/18 00:46:39;;;;;;;40.60;21.97;;;0.90;69.00;;;;;;5112693;28;20039;-61
2022/12/18 00:49:05;;;;;;;41.10;21.43;;;0.80;68.90;;;;;;5112290;28;20085;-61
2022/12/18 00:51:31;;;;;;;35.10;19.30;;;0.80;68.90;;;;;;5112587;28;20020;-61
2022/12/18 00:53:57;;;;;;;39.07;19.00;;;0.80;68.80;;;;;;5113816;28;20367;-61
2022/12/18 00:56:23;;;;;;;37.53;21.20;;;0.80;68.80;;;;;;5112434;28;20043;-61
2022/12/18 00:58:49;;;;;;;35.10;19.40;;;0.80;68.70;;;;;;5096667;28;20031;-61
2022/12/18 01:01:15;;;;;;;34.33;19.57;;;0.80;68.70;;;;;;5112952;28;20497;-61
2022/12/18 01:03:41;;;;;;;34.50;16.87;;;0.80;68.60;;;;;;5127466;28;20035;-61
2022/12/18 01:06:08;;;;;;;32.70;17.97;;;0.80;68.60;;;;;;5119386;28;20031;-61
2022/12/18 01:08:35;;;;;;;35.73;19.23;;;0.80;68.50;;;;;;5114178;28;20019;-61
2022/12/18 01:11:07;;;;;;;38.60;20.47;;;0.80;68.50;;;;;;5118095;28;20085;-61
2022/12/18 01:13:32;;;;;;;32.33;18.53;;;0.80;68.50;;;;;;5112041;28;20418;-61
2022/12/18 01:15:58;;;;;;;36.20;19.60;;;0.70;68.40;;;;;;5113172;28;20052;-61
2022/12/18 01:18:24;;;;;;;33.53;18.57;;;0.70;68.30;;;;;;5115280;28;20055;-61
2022/12/18 01:20:50;;;;;;;37.57;19.00;;;0.70;68.40;;;;;;5093114;28;20087;-61
2022/12/18 01:23:15;;;;;;;35.83;18.60;;;0.70;68.30;;;;;;5111634;28;20055;-61
2022/12/18 01:25:41;;;;;;;33.80;19.20;;;0.70;68.30;;;;;;5113256;28;20437;-61
2022/12/18 01:28:09;;;;;;;33.63;17.23;;;0.70;68.30;;;;;;5113469;28;20394;-61
2022/12/18 01:30:35;;;;;;;33.77;18.93;;;0.70;68.30;;;;;;5096196;28;20035;-61
2022/12/18 01:33:00;;;;;;;32.80;17.33;;;0.60;68.20;;;;;;5114957;28;20332;-61
2022/12/18 01:35:26;;;;;;;34.40;19.23;;;0.60;68.20;;;;;;5117260;28;20042;-61
2022/12/18 01:37:56;;;;;;;38.17;19.07;;;0.60;68.20;;;;;;5117263;28;20032;-61
2022/12/18 01:40:22;;;;;;;30.07;18.33;;;0.60;68.30;;;;;;5100343;28;20036;-61
2022/12/18 01:42:54;;;;;;;29.03;17.00;;;0.60;68.20;;;;;;5098888;28;20026;-61
2022/12/18 01:45:27;;;;;;;34.87;19.77;;;0.60;68.10;;;;;;5117312;28;20043;-61
2022/12/18 01:47:59;;;;;;;30.27;16.33;;;0.60;68.10;;;;;;5098202;28;20416;-60
2022/12/18 01:50:37;;;;;;;35.17;19.00;;;0.50;68.10;;;;;;5117206;28;20031;-62
2022/12/18 01:53:22;;;;;;;34.17;19.10;;;0.50;68.10;;;;;;5115655;27;20055;-62
2022/12/18 01:55:57;;;;;;;31.17;17.53;;;0.50;68.00;;;;;;5117018;28;20065;-62
2022/12/18 01:58:35;;;;;;;33.07;19.00;;;0.50;68.00;;;;;;5114311;28;20030;-62
2022/12/18 02:01:01;;;;;;;34.73;17.60;;;0.50;68.00;;;;;;5115922;28;20046;-62
2022/12/18 02:03:26;;;;;;;32.10;16.87;;;0.50;68.10;;;;;;5098996;28;20031;-61
2022/12/18 02:06:12;;;;;;;30.90;17.83;;;0.50;68.00;;;;;;5096702;27;20135;-60
2022/12/18 02:08:52;;;;;;;33.77;17.43;;;0.50;68.00;;;;;;5120294;27;20019;-60
2022/12/18 02:11:45;;;;;;;36.60;17.43;;;0.50;67.90;;;;;;5115937;28;20132;-60
2022/12/18 02:14:30;;;;;;;32.67;18.37;;;0.50;68.00;;;;;;5129381;27;20027;-60
2022/12/18 02:17:06;;;;;;;33.93;18.43;;;0.50;67.90;;;;;;5116579;28;20357;-60
2022/12/18 02:19:32;;;;;;;30.03;17.57;;;0.40;67.90;;;;;;5114692;28;20069;-60
2022/12/18 02:22:14;;;;;;;30.17;17.20;;;0.40;67.90;;;;;;5117081;27;20048;-60
2022/12/18 02:25:04;;;;;;;32.92;17.60;;;0.40;67.80;;;;;;5105042;28;20077;-60
2022/12/18 02:27:33;;;;;;;28.90;17.77;;;0.40;67.80;;;;;;5116112;28;20099;-61
2022/12/18 02:30:01;;;;;;;33.20;16.17;;;0.40;67.80;;;;;;5115363;28;20032;-61
2022/12/18 02:32:33;;;;;;;33.77;18.67;;;0.40;67.80;;;;;;5115203;28;20143;-60
2022/12/18 02:35:00;;;;;;;32.13;17.58;;;0.40;67.70;;;;;;5115888;27;20074;-60
2022/12/18 02:37:29;;;;;;;32.00;16.57;;;0.40;67.70;;;;;;5099802;28;20031;-60
2022/12/18 02:39:58;;;;;;;28.37;15.97;;;0.40;67.70;;;;;;5115537;28;20034;-60
2022/12/18 02:42:24;;;;;;;31.53;17.33;;;0.40;67.70;;;;;;5098629;28;20048;-60
2022/12/18 02:44:51;;;;;;;30.00;16.43;;;0.40;67.70;;;;;;5096965;28;20337;-61
2022/12/18 02:47:27;;;;;;;30.60;16.27;;;0.40;67.60;;;;;;5116224;28;20031;-61
2022/12/18 02:50:28;;;;;;;31.10;17.50;;;0.30;67.50;;;;;;5115236;28;20020;-60
2022/12/18 02:53:48;;;;;;;35.93;18.17;;;0.30;67.60;;;;;;5107862;27;20036;-60
2022/12/18 02:56:26;;;;;;;30.23;15.90;;;0.30;67.50;;;;;;5060182;28;20118;-60
2022/12/18 02:59:01;;;;;;;31.67;17.90;;;0.20;67.50;;;;;;5115978;28;20477;-60
2022/12/18 03:02:14;;;;;;;29.10;16.07;;;0.20;67.50;;;;;;5117401;27;20024;-61
2022/12/18 03:05:00;;;;;;;33.00;17.43;;;0.20;67.50;;;;;;5119304;27;20019;-60
2022/12/18 03:07:36;;;;;;;32.03;16.90;;;0.20;67.40;;;;;;5096394;28;20043;-61
2022/12/18 03:10:08;;;;;;;33.47;16.63;;;0.20;67.30;;;;;;5096413;28;20110;-60
2022/12/18 03:12:41;;;;;;;22.10;12.63;;;0.10;67.30;;;;;;5114356;27;20015;-60
2022/12/18 03:15:18;;;;;;;28.53;16.10;;;0.10;67.40;;;;;;5134717;27;20094;-60
2022/12/18 03:18:04;;;;;;;27.53;15.13;;;0.10;67.40;;;;;;5112054;28;20039;-60
2022/12/18 03:20:33;;;;;;;32.73;16.70;;;0.10;67.40;;;;;;5112963;28;20448;-60
2022/12/18 03:23:12;;;;;;;27.03;14.93;;;0.10;67.40;;;;;;5115131;28;20111;-60
2022/12/18 03:25:42;;;;;;;30.63;17.10;;;0.10;67.40;;;;;;5109659;28;20024;-60
2022/12/18 03:28:14;;;;;;;28.00;15.57;;;0.10;67.40;;;;;;5098387;28;20397;-61
2022/12/18 03:30:43;;;;;;;32.87;15.70;;;0.10;67.40;;;;;;5096699;28;20098;-60
2022/12/18 03:33:17;;;;;;;29.50;15.83;;;0.10;67.30;;;;;;5098295;28;20020;-60
2022/12/18 03:35:45;;;;;;;28.10;15.03;;;0.10;67.30;;;;;;5114556;28;20392;-60
2022/12/18 03:38:12;;;;;;;27.87;14.93;;;0.00;67.20;;;;;;5114587;28;20110;-60
2022/12/18 03:41:01;;;;;;;31.53;16.10;;;0.00;67.20;;;;;;5112911;28;20092;-60
2022/12/18 03:43:44;;;;;;;25.53;14.30;;;0.00;67.20;;;;;;5111785;28;20414;-60
2022/12/18 03:46:21;;;;;;;27.73;14.50;;;0.00;67.20;;;;;;5089989;28;20371;-61
2022/12/18 03:48:52;;;;;;;30.30;15.43;;;0.00;67.30;;;;;;5097749;28;20043;-60
2022/12/18 03:51:28;;;;;;;27.73;14.67;;;0.00;67.20;;;;;;5095465;28;20019;-60
2022/12/18 03:54:00;;;;;;;28.73;14.13;;;0.00;67.20;;;;;;5094532;28;20111;-60
2022/12/18 03:56:33;;;;;;;26.20;13.97;;;0.00;67.20;;;;;;5107655;28;20027;-60
2022/12/18 03:59:01;;;;;;;27.30;13.90;;;0.00;67.20;;;;;;5100317;28;20172;-60
2022/12/18 04:01:41;;;;;;;24.43;14.57;;;0.00;67.10;;;;;;5092988;28;20080;-60
2022/12/18 04:04:09;;;;;;;26.93;13.73;;;0.00;66.90;;;;;;5122708;27;20035;-60
2022/12/18 04:06:38;;;;;;;27.60;15.35;;;0.00;66.90;;;;;;5109318;28;20083;-60
2022/12/18 04:09:04;;;;;;;27.40;15.20;;;0.00;66.90;;;;;;5131040;27;20035;-60
2022/12/18 04:11:32;;;;;;;31.80;15.50;;;0.00;66.90;;;;;;5103770;27;20531;-60
2022/12/18 04:13:59;;;;;;;29.37;16.90;;;0.00;67.00;;;;;;5127754;27;20113;-60
2022/12/18 04:16:26;;;;;;;34.90;17.13;;;0.00;66.90;;;;;;5127672;27;20363;-60
2022/12/18 04:18:55;;;;;;;29.10;16.20;;;0.00;66.90;;;;;;5113075;28;20047;-60
2022/12/18 04:21:23;;;;;;;31.00;15.87;;;0.00;66.90;;;;;;5113237;28;20019;-60
2022/12/18 04:23:49;;;;;;;28.17;15.27;;;0.00;66.90;;;;;;5096751;28;20073;-60
2022/12/18 04:26:17;;;;;;;30.27;14.57;;;0.00;66.90;;;;;;5097232;27;20026;-60
2022/12/18 04:28:55;;;;;;;23.30;13.17;;;-0.10;66.90;;;;;;5119482;27;20024;-60
2022/12/18 04:31:21;;;;;;;24.20;13.27;;;0.00;66.90;;;;;;5095834;28;20026;-60
2022/12/18 04:33:47;;;;;;;23.10;12.93;;;0.00;66.90;;;;;;5111808;28;20088;-60
2022/12/18 04:36:13;;;;;;;22.77;12.63;;;0.00;66.90;;;;;;5097007;28;20360;-60
2022/12/18 04:38:40;;;;;;;21.03;12.10;;;0.00;66.90;;;;;;5113184;28;20023;-60
2022/12/18 04:41:13;;;;;;;21.33;11.23;;;0.00;66.90;;;;;;5111924;28;20458;-61
2022/12/18 04:43:40;;;;;;;21.80;12.20;;;0.00;66.90;;;;;;5112831;28;20035;-60
2022/12/18 04:46:07;;;;;;;26.37;13.27;;;-0.10;66.80;;;;;;5114926;28;20417;-61
2022/12/18 04:48:34;;;;;;;23.13;11.73;;;-0.10;66.90;;;;;;5113386;28;20031;-60
2022/12/18 04:51:02;;;;;;;22.53;11.20;;;-0.10;67.50;;;;;;5113256;28;20024;-60
2022/12/18 04:53:27;;;;;;;22.03;11.97;;;-0.10;66.90;;;;;;5111328;28;20137;-60
2022/12/18 04:56:10;;;;;;;21.00;10.47;;;-0.10;66.90;;;;;;5114883;28;20111;-60
2022/12/18 04:58:37;;;;;;;19.43;11.47;;;-0.10;66.90;;;;;;5093874;28;20035;-62
2022/12/18 05:01:03;;;;;;;22.50;12.20;;;-0.20;66.80;;;;;;5113142;28;20035;-60
2022/12/18 05:03:29;;;;;;;20.07;11.23;;;-0.10;66.90;;;;;;5112724;28;20463;-60
2022/12/18 05:05:55;;;;;;;20.27;11.00;;;-0.10;66.90;;;;;;5113252;28;20032;-61
2022/12/18 05:08:21;;;;;;;20.67;10.37;;;-0.10;66.90;;;;;;5115899;28;20026;-60
2022/12/18 05:10:47;;;;;;;23.03;11.87;;;-0.10;66.90;;;;;;5097895;28;20027;-61
2022/12/18 05:13:12;;;;;;;18.00;10.47;;;-0.20;66.80;;;;;;5105481;27;20059;-61
2022/12/18 05:15:38;;;;;;;20.60;10.93;;;-0.20;66.80;;;;;;5121607;27;20042;-62
2022/12/18 05:18:04;;;;;;;19.63;11.00;;;-0.20;66.80;;;;;;5116304;28;20070;-62
2022/12/18 05:20:30;;;;;;;21.07;11.90;;;-0.20;66.80;;;;;;5117664;28;20122;-62
2022/12/18 05:22:56;;;;;;;18.67;10.40;;;-0.20;67.40;;;;;;5100386;28;20110;-62
2022/12/18 05:25:23;;;;;;;21.80;10.23;;;-0.20;66.80;;;;;;5107060;28;20114;-62
2022/12/18 05:27:49;;;;;;;18.83;10.37;;;-0.20;66.80;;;;;;5121897;27;20046;-62
2022/12/18 05:30:15;;;;;;;17.43;10.80;;;-0.20;66.80;;;;;;5116307;28;20034;-62
2022/12/18 05:32:41;;;;;;;19.87;9.77;;;-0.30;66.80;;;;;;5100267;28;20030;-62
2022/12/18 05:35:09;;;;;;;20.40;10.57;;;-0.30;66.80;;;;;;5099564;28;20356;-62
2022/12/18 05:37:35;;;;;;;18.80;10.83;;;-0.30;66.70;;;;;;5118513;28;20034;-61
2022/12/18 05:40:02;;;;;;;17.80;9.53;;;-0.30;66.70;;;;;;5115575;28;20107;-61
2022/12/18 05:42:28;;;;;;;20.07;11.27;;;-0.30;66.80;;;;;;5098328;28;20511;-61
2022/12/18 05:44:54;;;;;;;18.13;11.00;;;-0.30;66.70;;;;;;5117194;28;20074;-61
2022/12/18 05:47:19;;;;;;;19.10;10.53;;;-0.30;66.70;;;;;;5115339;27;20032;-61
2022/12/18 05:49:45;;;;;;;18.90;10.17;;;-0.30;66.60;;;;;;5098542;28;20032;-61
2022/12/18 05:52:11;;;;;;;18.47;10.27;;;-0.30;66.60;;;;;;5115681;28;20023;-61
2022/12/18 05:54:37;;;;;;;17.87;9.53;;;-0.30;66.80;;;;;;5112241;28;20024;-61
2022/12/18 05:57:02;;;;;;;16.53;8.83;;;-0.30;66.70;;;;;;5116717;28;20058;-61
2022/12/18 05:59:28;;;;;;;21.03;10.20;;;-0.40;66.70;;;;;;5115336;28;20340;-61
2022/12/18 06:01:54;;;;;;;17.10;9.47;;;-0.40;66.60;;;;;;5098714;28;20032;-61
2022/12/18 06:04:19;;;;;;;20.60;11.30;;;-0.30;66.70;;;;;;5115269;28;20456;-61
2022/12/18 06:06:45;;;;;;;14.67;8.03;;;-0.40;66.70;;;;;;5115343;28;20463;-60
2022/12/18 06:09:11;;;;;;;17.37;9.83;;;-0.40;66.70;;;;;;5114302;28;20039;-61
2022/12/18 06:11:38;;;;;;;18.60;9.70;;;-0.40;66.90;;;;;;5115413;28;20173;-61
2022/12/18 06:14:05;;;;;;;17.40;9.27;;;-0.40;67.30;;;;;;5126572;27;20340;-60
2022/12/18 06:16:31;;;;;;;17.10;9.13;;;-0.40;67.30;;;;;;5116319;28;20030;-61
2022/12/18 06:19:02;;;;;;;14.97;8.20;;;-0.30;66.70;;;;;;5116485;28;20435;-61
2022/12/18 06:21:28;;;;;;;16.57;9.17;;;-0.30;66.70;;;;;;5115356;27;20054;-60
2022/12/18 06:23:54;;;;;;;17.33;8.97;;;-0.40;66.70;;;;;;5114523;28;20088;-63
2022/12/18 06:26:20;;;;;;;17.00;9.27;;;-0.30;66.80;;;;;;5114945;27;20047;-61
2022/12/18 06:28:45;;;;;;;17.13;9.70;;;-0.40;66.70;;;;;;5117376;28;20026;-60
2022/12/18 06:31:11;;;;;;;17.23;9.40;;;-0.40;66.70;;;;;;5096245;28;20019;-60
2022/12/18 06:33:38;;;;;;;16.27;10.00;;;-0.40;66.70;;;;;;5114934;27;20420;-60
2022/12/18 06:36:07;;;;;;;16.57;9.13;;;-0.40;66.70;;;;;;5109629;28;20412;-61
2022/12/18 06:38:34;;;;;;;16.93;9.20;;;-0.40;66.70;;;;;;5115165;28;20341;-62
2022/12/18 06:40:59;;;;;;;16.23;9.33;;;-0.40;66.70;;;;;;5114548;28;20028;-61
2022/12/18 06:43:25;;;;;;;16.30;9.17;;;-0.40;66.70;;;;;;5097143;28;20023;-61
2022/12/18 06:45:52;;;;;;;17.30;9.93;;;-0.40;66.70;;;;;;5114912;28;20037;-61
2022/12/18 06:48:21;;;;;;;18.43;10.07;;;-0.30;66.80;;;;;;5097726;28;20058;-61
2022/12/18 06:50:47;;;;;;;17.40;10.03;;;-0.40;66.70;;;;;;5116101;28;20049;-61
2022/12/18 06:53:13;;;;;;;18.57;9.23;;;-0.40;66.70;;;;;;5098933;28;20035;-61
2022/12/18 06:55:39;;;;;;;22.03;10.30;;;-0.40;66.80;;;;;;5116082;28;20035;-61
2022/12/18 06:58:04;;;;;;;20.27;9.60;;;-0.40;66.80;;;;;;5105457;27;20362;-61
2022/12/18 07:00:30;;;;;;;18.13;9.07;;;-0.40;66.80;;;;;;5136605;27;20031;-61
2022/12/18 07:02:56;;;;;;;17.40;9.50;;;-0.40;66.70;;;;;;5136627;27;20027;-61
2022/12/18 07:05:21;;;;;;;15.93;8.87;;;-0.40;66.80;;;;;;5095324;28;20475;-61
2022/12/18 07:07:47;;;;;;;15.50;8.87;;;-0.40;66.80;;;;;;5095499;28;20032;-61
2022/12/18 07:10:13;;;;;;;17.73;9.67;;;-0.40;66.90;;;;;;5095444;28;20093;-61
2022/12/18 07:12:38;;;;;;;17.63;9.07;;;-0.40;66.80;;;;;;5112173;27;20097;-61
2022/12/18 07:15:05;;;;;;;18.00;10.40;;;-0.40;66.80;;;;;;5119825;27;20024;-61
2022/12/18 07:17:30;;;;;;;18.73;10.37;;;-0.40;66.80;;;;;;5112823;28;20085;-60
2022/12/18 07:19:56;;;;;;;19.63;9.90;;;-0.40;66.80;;;;;;5115422;28;20036;-61
2022/12/18 07:22:22;;;;;;;16.73;9.40;;;-0.40;66.80;;;;;;5114081;28;20038;-61
2022/12/18 07:24:48;;;;;;;16.40;10.23;;;-0.30;66.80;;;;;;5115438;28;20031;-61
2022/12/18 07:27:14;;;;;;;20.23;10.63;;;-0.30;66.90;;;;;;5118631;27;20480;-60
2022/12/18 07:29:40;;;;;;;16.23;9.13;;;-0.30;66.90;;;;;;5115161;28;20103;-61
2022/12/18 07:32:06;;;;;;;16.13;8.73;;;-0.30;66.90;;;;;;5112903;27;20355;-60
2022/12/18 07:34:32;;;;;;;17.33;9.30;;;-0.30;66.80;;;;;;5096578;28;20084;-61
2022/12/18 07:36:58;;;;;;;18.73;8.97;;;-0.20;66.80;;;;;;5113044;28;20032;-60
2022/12/18 07:39:24;;;;;;;18.83;9.73;;;-0.20;66.80;;;;;;5111591;28;20031;-63
2022/12/18 07:42:30;;;;;;;16.07;8.53;;;-0.20;66.80;;;;;;5115921;28;20126;-63
2022/12/18 07:44:35;;;;;;;17.17;9.53;;;-0.10;66.90;;;;;;5112538;28;20042;-61
2022/12/18 07:47:01;;;;;;;16.47;8.13;;;-0.10;66.80;;;;;;5117643;27;20024;-61
2022/12/18 07:49:27;;;;;;;19.10;9.00;;;-0.10;66.80;;;;;;5113608;28;20035;-61
2022/12/18 07:51:55;;;;;;;17.93;9.67;;;-0.10;66.90;;;;;;5116061;28;20116;-60
2022/12/18 07:54:22;;;;;;;15.77;8.43;;;-0.10;66.90;;;;;;5111239;28;20169;-60
2022/12/18 07:56:48;;;;;;;16.47;8.47;;;-0.10;66.90;;;;;;5114468;28;20043;-61
2022/12/18 07:59:14;;;;;;;17.00;8.03;;;0.00;66.90;;;;;;5113508;28;20031;-61
2022/12/18 08:01:40;;;;;;;15.77;9.00;;;0.00;66.80;;;;;;5115226;28;20035;-61
2022/12/18 08:04:05;;;;;;;14.63;8.03;;;0.00;66.80;;;;;;5112676;28;20036;-61
2022/12/18 08:06:31;;;;;;;16.00;8.80;;;0.00;66.70;;;;;;5115570;28;20027;-61
2022/12/18 08:08:57;;;;;;;16.40;8.63;;;0.10;66.80;;;;;;5112899;28;20016;-60
2022/12/18 08:11:25;;;;;;;17.00;9.00;;;0.10;66.80;;;;;;5113141;28;20468;-61
2022/12/18 08:13:51;;;;;;;15.57;8.80;;;0.20;66.80;;;;;;5111685;28;20397;-61
2022/12/18 08:16:17;;;;;;;16.07;8.63;;;0.20;66.80;;;;;;5097557;28;20110;-60
2022/12/18 08:18:43;;;;;;;15.30;8.20;;;0.20;66.80;;;;;;5113319;28;20472;-60
2022/12/18 08:21:22;;;;;;;15.93;9.50;;;0.20;66.70;;;;;;5111829;28;20087;-60
2022/12/18 08:23:49;;;;;;;14.83;8.33;;;0.30;66.70;;;;;;5113980;28;20023;-60
2022/12/18 08:26:15;;;;;;;14.33;7.60;;;0.30;66.60;;;;;;5130450;27;20035;-61
2022/12/18 08:28:42;;;;;;;17.00;8.93;;;0.40;67.30;;;;;;5095876;28;20030;-60
2022/12/18 08:31:08;;;;;;;16.37;8.17;;;0.40;66.50;;;;;;5113922;28;20031;-61
2022/12/18 08:33:34;;;;;;;15.50;6.97;;;0.40;66.50;;;;;;5113844;28;20026;-61
2022/12/18 08:36:01;;;;;;;15.67;8.50;;;0.50;66.40;;;;;;5125305;27;20345;-60
2022/12/18 08:38:27;;;;;;;16.60;8.33;;;0.60;66.40;;;;;;5115011;28;20043;-61
2022/12/18 08:41:08;;;;;;;15.27;7.50;;;0.60;66.30;;;;;;5112949;28;20031;-61
2022/12/18 08:46:20;;;;;;;12.97;6.90;;;0.70;66.30;;;;;;5111585;28;20341;-61
2022/12/18 08:48:46;;;;;;;16.40;7.83;;;0.70;66.20;;;;;;5113263;28;20038;-61
2022/12/18 08:51:12;;;;;;;19.80;7.33;;;0.80;66.20;;;;;;5111855;28;20419;-61
2022/12/18 08:53:38;;;;;;;19.40;7.80;;;0.80;66.10;;;;;;5112380;28;20035;-61
2022/12/18 08:56:05;;;;;;;14.10;7.43;;;0.90;66.10;;;;;;5112586;28;20028;-61
2022/12/18 08:58:31;;;;;;;13.80;7.73;;;0.90;66.10;;;;;;5113149;28;20023;-61
2022/12/18 09:01:04;;;;;;;15.53;7.20;;;0.90;66.10;;;;;;5093796;28;20035;-61
2022/12/18 09:03:30;;;;;;;12.70;6.57;;;0.90;66.00;;;;;;5113459;28;20463;-62
2022/12/18 09:05:56;;;;;;;15.83;7.30;;;1.00;66.10;;;;;;5112357;28;20024;-61
2022/12/18 09:08:22;;;;;;;14.87;7.07;;;1.00;66.00;;;;;;5113761;28;20436;-61
2022/12/18 09:10:49;;;;;;;14.20;6.33;;;1.10;66.10;;;;;;5113730;28;20098;-61
2022/12/18 09:13:16;;;;;;;13.77;6.87;;;1.10;65.90;;;;;;5114765;28;20027;-61
2022/12/18 09:15:54;;;;;;;13.47;6.63;;;1.20;65.80;;;;;;5110070;28;20485;-61
2022/12/18 09:18:21;;;;;;;13.23;7.23;;;1.30;65.70;;;;;;5113898;28;20047;-61
2022/12/18 09:20:47;;;;;;;11.53;6.13;;;1.30;65.60;;;;;;5112512;28;20114;-61
2022/12/18 09:23:13;;;;;;;13.80;6.33;;;1.40;65.60;;;;;;5114670;28;20031;-61
2022/12/18 09:25:39;;;;;;;12.10;5.77;;;1.40;65.60;;;;;;5108608;28;20028;-60
2022/12/18 09:28:17;;;;;;;13.13;6.43;;;1.40;65.60;;;;;;5112862;28;20039;-61
2022/12/18 09:30:48;;;;;;;12.50;6.47;;;1.40;65.60;;;;;;5128904;28;20027;-60
2022/12/18 09:33:14;;;;;;;11.25;6.07;;;1.50;65.50;;;;;;5113208;28;20409;-61
2022/12/18 09:35:42;;;;;;;14.87;6.67;;;1.50;65.50;;;;;;5111962;28;20020;-61
2022/12/18 09:38:11;;;;;;;11.47;6.50;;;1.60;65.40;;;;;;5113339;28;20035;-61
2022/12/18 09:40:50;;;;;;;11.80;5.90;;;1.60;65.30;;;;;;5113477;28;20429;-61
2022/12/18 09:43:37;;;;;;;12.07;6.13;;;1.60;65.20;;;;;;5094438;28;20348;-61
2022/12/18 09:46:08;;;;;;;12.93;6.27;;;1.70;65.20;;;;;;5101985;28;20444;-61
2022/12/18 09:48:42;;;;;;;10.90;5.55;;;1.70;65.10;;;;;;5112153;28;20106;-61
2022/12/18 09:51:18;;;;;;;12.47;6.50;;;1.80;65.10;;;;;;5112132;28;20036;-61
2022/12/18 09:53:53;;;;;;;11.60;5.73;;;1.80;65.00;;;;;;5111740;28;20023;-61
2022/12/18 09:56:22;;;;;;;13.40;6.50;;;1.80;65.00;;;;;;5116549;28;20374;-61
2022/12/18 09:59:19;;;;;;;11.83;5.33;;;1.80;65.00;;;;;;5114005;28;20026;-62
2022/12/18 10:01:45;;;;;;;12.10;5.40;;;1.80;64.90;;;;;;5109765;28;20039;-62
2022/12/18 10:04:10;;;;;;;12.37;5.90;;;1.90;64.90;;;;;;5123573;27;20041;-62
2022/12/18 10:06:46;;;;;;;11.47;6.27;;;1.90;64.90;;;;;;5122737;27;20459;-62
2022/12/18 10:09:32;;;;;;;15.40;7.27;;;1.90;64.80;;;;;;5133020;27;20088;-61
2022/12/18 10:12:37;;;;;;;11.97;6.20;;;1.90;64.80;;;;;;5117705;28;20051;-61
2022/12/18 10:15:48;;;;;;;13.37;6.43;;;1.90;64.70;;;;;;5096492;28;20028;-61
2022/12/18 10:18:23;;;;;;;13.13;6.53;;;1.90;64.70;;;;;;5089874;28;20044;-61
2022/12/18 10:20:54;;;;;;;13.37;5.70;;;1.90;64.70;;;;;;5113500;28;20047;-61
2022/12/18 10:23:38;;;;;;;12.52;6.57;;;2.00;64.70;;;;;;5120442;27;20062;-61
2022/12/18 10:26:09;;;;;;;13.97;6.73;;;2.00;64.60;;;;;;5137628;27;20035;-61
2022/12/18 10:28:39;;;;;;;11.63;5.72;;;2.10;64.60;;;;;;5138241;27;20039;-61
2022/12/18 10:31:06;;;;;;;13.40;6.77;;;2.10;64.50;;;;;;5137478;27;20477;-62
2022/12/18 10:33:33;;;;;;;12.60;6.60;;;2.10;64.50;;;;;;5137347;27;20057;-62
2022/12/18 10:35:59;;;;;;;14.67;7.17;;;2.10;64.50;;;;;;5096899;28;20031;-62
2022/12/18 10:38:31;;;;;;;14.20;6.97;;;2.20;64.50;;;;;;5096252;28;20024;-62
2022/12/18 10:41:17;;;;;;;12.00;6.85;;;2.20;64.40;;;;;;5095858;28;20444;-62
2022/12/18 10:43:42;;;;;;;11.60;5.50;;;2.20;64.30;;;;;;5113140;28;20031;-62
2022/12/18 10:46:08;;;;;;;14.90;6.50;;;2.20;64.20;;;;;;5112981;28;20429;-62
2022/12/18 10:48:56;;;;;;;13.17;6.63;;;2.30;64.30;;;;;;5097419;28;20129;-61
2022/12/18 10:51:33;;;;;;;14.40;6.50;;;2.30;64.20;;;;;;5101407;28;20118;-61
2022/12/18 10:54:13;;;;;;;12.97;6.43;;;2.30;64.20;;;;;;5116245;28;20084;-61
2022/12/18 10:56:40;;;;;;;11.23;5.80;;;2.30;64.10;;;;;;5115144;28;20480;-61
2022/12/18 10:59:11;;;;;;;14.47;7.10;;;2.40;64.10;;;;;;5116104;28;20102;-60
2022/12/18 11:01:48;;;;;;;11.07;5.82;;;2.40;64.10;;;;;;5115415;28;20301;-63
2022/12/18 11:04:31;;;;;;;13.87;6.80;;;2.30;64.00;;;;;;5113763;28;20042;-61
2022/12/18 11:06:58;;;;;;;13.87;6.27;;;2.40;64.00;;;;;;5114010;28;20054;-61
2022/12/18 11:09:24;;;;;;;14.60;7.33;;;2.40;64.00;;;;;;5112585;28;20430;-61
2022/12/18 11:11:53;;;;;;;13.10;6.77;;;2.40;63.90;;;;;;5097448;28;20054;-62
2022/12/18 11:14:28;;;;;;;13.77;6.57;;;2.40;63.80;;;;;;5110077;28;20367;-61
2022/12/18 11:16:56;;;;;;;13.10;6.90;;;2.50;63.80;;;;;;5109887;27;20587;-62
2022/12/18 11:19:28;;;;;;;14.87;8.07;;;2.50;63.70;;;;;;5093139;28;20031;-61
2022/12/18 11:21:53;;;;;;;15.43;8.25;;;2.50;63.60;;;;;;5114898;28;20459;-61
2022/12/18 11:24:28;;;;;;;13.70;6.90;;;2.50;63.50;;;;;;5119110;27;20020;-62
2022/12/18 11:26:54;;;;;;;15.63;7.27;;;2.50;63.50;;;;;;5113120;28;20102;-62
2022/12/18 11:29:29;;;;;;;15.13;7.47;;;2.50;63.50;;;;;;5106738;28;20047;-67
2022/12/18 11:32:34;;;;;;;13.67;6.97;;;2.50;63.30;;;;;;5095429;28;20372;-67
2022/12/18 11:35:23;;;;;;;13.77;7.47;;;2.50;63.40;;;;;;5092212;28;20042;-68
2022/12/18 11:38:02;;;;;;;12.97;7.23;;;2.50;63.30;;;;;;5109963;28;20020;-68
2022/12/18 11:40:41;;;;;;;13.13;6.27;;;2.60;63.30;;;;;;5102114;28;20035;-67
2022/12/18 11:43:18;;;;;;;12.77;7.13;;;2.60;63.30;;;;;;5102464;28;20126;-67
2022/12/18 11:45:54;;;;;;;13.37;6.90;;;2.60;63.20;;;;;;5094890;28;20043;-68
2022/12/18 11:48:36;;;;;;;14.80;8.27;;;2.70;63.20;;;;;;5099334;28;20772;-68
2022/12/18 11:51:04;;;;;;;;;;;2.70;63.10;;;;;;5111952;28;20028;-68
2022/12/18 11:53:30;;;;;;;11.30;6.10;;;2.80;63.10;;;;;;5094106;28;19996;-68
2022/12/18 11:56:26;;;;;;;13.03;6.63;;;2.70;63.00;;;;;;5105562;28;20027;-68
2022/12/18 11:59:03;;;;;;;14.37;6.50;;;2.80;62.90;;;;;;5122507;27;20020;-68
2022/12/18 12:01:39;;;;;;;13.80;6.73;;;2.80;62.90;;;;;;5103944;28;20063;-68
2022/12/18 12:04:08;;;;;;;15.23;7.33;;;2.80;62.80;;;;;;5108837;28;20039;-68
2022/12/18 12:06:48;;;;;;;14.37;6.90;;;2.80;62.70;;;;;;5098003;27;20039;-68
2022/12/18 12:09:36;;;;;;;14.53;6.57;;;2.90;62.70;;;;;;5111367;28;20138;-68
2022/12/18 12:12:15;;;;;;;11.93;6.10;;;2.90;62.60;;;;;;5119010;27;20449;-68
2022/12/18 12:15:18;;;;;;;13.60;7.53;;;2.90;62.60;;;;;;5098892;27;20122;-67
2022/12/18 12:17:55;;;;;;;15.37;6.47;;;2.90;62.50;;;;;;5096273;28;20131;-68
2022/12/18 12:20:49;;;;;;;15.67;7.17;;;2.90;62.40;;;;;;5096164;28;20085;-68
2022/12/18 12:23:56;;;;;;;15.30;7.07;;;2.90;62.40;;;;;;5094108;28;20051;-68
2022/12/18 12:26:42;;;;;;;14.47;7.83;;;3.00;62.40;;;;;;5078461;28;20035;-68
2022/12/18 12:29:31;;;;;;;16.37;8.53;;;3.00;63.00;;;;;;5115640;27;20100;-68
2022/12/18 12:32:12;;;;;;;14.20;7.10;;;3.00;62.40;;;;;;5111166;28;20019;-68
2022/12/18 12:34:56;;;;;;;14.03;7.57;;;3.00;62.30;;;;;;5095148;28;20107;-70
2022/12/18 12:37:43;;;;;;;14.53;7.93;;;3.00;62.30;;;;;;5101409;28;20023;-68
2022/12/18 12:40:19;;;;;;;14.33;7.23;;;3.00;62.20;;;;;;5101004;28;20096;-70
2022/12/18 12:45:51;;;;;;;13.43;6.77;;;3.00;62.10;;;;;;5097847;28;20036;-69
2022/12/18 12:48:26;;;;;;;15.27;7.28;;;3.10;62.00;;;;;;5103839;28;20020;-68
2022/12/18 12:50:53;;;;;;;17.07;8.40;;;3.10;62.00;;;;;;5099538;28;20035;-68
2022/12/18 12:53:38;;;;;;;15.20;7.50;;;3.10;61.90;;;;;;5076723;28;20062;-68
2022/12/18 12:56:05;;;;;;;15.20;7.70;;;3.10;61.70;;;;;;5112521;27;20456;-68
2022/12/18 12:58:39;;;;;;;13.13;7.03;;;3.10;61.80;;;;;;5103248;28;20341;-68
2022/12/18 13:01:10;;;;;;;15.10;7.20;;;3.10;61.70;;;;;;5120865;27;20509;-67
2022/12/18 13:03:54;;;;;;;13.93;7.07;;;3.10;61.70;;;;;;5114930;28;20036;-68
2022/12/18 13:06:49;;;;;;;17.73;7.73;;;3.10;61.60;;;;;;5105120;28;20051;-67
2022/12/18 13:09:15;;;;;;;16.37;8.60;;;3.10;61.50;;;;;;5112153;28;20044;-67
2022/12/18 13:14:34;;;;;;;15.00;8.10;;;3.10;61.50;;;;;;5114768;28;20390;-67